Aérodrome :
LOGIN :

S'inscrire | Disclaimer

   EN    FR    IT 

 










Légende :    VFR   VFR Marginal   IFR   IFR Intensif   IFR Très Intensif
Visi : 
Plafond : 
>= 8 km
>= 3000ft
5 à 8 km
1000 à 3000 ft
1500m à 5 km
500 à 1000 ft
800 à 1500m
200 à 500 ft
< 800m
< 200 ft
Symboles :   Orages  Brouillard  Fortes neiges  Fortes précipitations  Vent > 20 kt
SIGMETs :   Divers  Orages  Givrage  Turbulence  Onde Orograph.  Cendres Volcan.







- Altitude de l'aérodrome : 277 ft
- Code IATA : JER
- Voir les cartes d'approche


EGJJ - Jersey

DERNIER METAR :
  • 222250Z AUTO 33009KT 300V360 9999 FEW027/// SCT032/// BKN048/// 06/03 Q0999 RESHRA

METARs EXPIRÉS :
  • 222220Z 30016KT 9999 -SHRA FEW022 SCT028 06/03 Q0999
  • 222150Z 32012KT 9999 -SHRA FEW022 SCT032 06/03 Q0999
  • 222120Z 30011KT 9999 -SHRA FEW026 SCT038 06/03 Q0999 RESHRA
  • 222050Z 30019G29KT 9999 -SHRA FEW020 BKN028 06/02 Q0999 RESHRA
  • 222020Z 31016KT 9999 VCSH FEW028 07/03 Q0999

TAF TAF EGJJ
Valide du 22 à 21h jusqu'au 23 à 06h UTC


222004Z 2221/2306 32016KT 9999 SCT020
PROB30
TEMPO 2221/2306 29022G32KT 8000 SHRAGS BKN015CB
ATIS : +44 1534 498 073
Pas de NOTAMs connus pour ce terrain.



MET'MAP, la Météo Aéronautique d'un coup d'oeil ! - Copyright ORBIFLY Décembre 2007 - Disclaimer

ORBIFLY MET'MAP TEAM :

Programmation & Développement : Alexandra Zaïnal
Conception & Développement : Baudouin d'Aumeries
Co-Programmation & Développement : Marc-Olivier Méhu
Soutien technique & logistique : Manuel Goepfert

Contact : metmap@orbifly.com




SOURCES & CREDITS :

   NOAA